Time;durP1;ratioP1;P1;durP2;ratioP2;P2;SDS_P1;SDS_P2;PMS_P1;PMS_P2;Temp;Humidity;BMP_temperature;BMP_pressure;BME280_temperature;BME280_humidity;BME280_pressure;Samples;Min_cycle;Max_cycle;Signal;HPM_P1;HPM_P2
2022/04/06 00:00:16;;;;;;;14.90;10.10;;;;;;;8.61;82.85;97600.25;4993168;28;21480;-77
2022/04/06 00:02:42;;;;;;;15.15;9.73;;;;;;;8.70;83.46;97594.16;5007561;28;20048;-77
2022/04/06 00:05:09;;;;;;;12.73;9.48;;;;;;;8.67;83.34;97594.69;5012577;28;20121;-77
2022/04/06 00:07:35;;;;;;;16.55;9.80;;;;;;;8.64;82.89;97595.22;4985516;28;20049;-77
2022/04/06 00:10:01;;;;;;;16.20;9.77;;;;;;;8.60;83.61;97588.03;5010300;28;20104;-77
2022/04/06 00:12:26;;;;;;;18.73;11.57;;;;;;;8.59;83.72;97591.75;5008580;28;20021;-77
2022/04/06 00:14:52;;;;;;;14.02;9.65;;;;;;;8.60;83.28;97590.72;5008714;28;20383;-77
2022/04/06 00:17:17;;;;;;;15.88;10.13;;;;;;;8.60;83.09;97583.53;5009171;28;20034;-77
2022/04/06 00:19:42;;;;;;;15.10;10.07;;;;;;;8.59;83.92;97587.25;5010329;28;20026;-77
2022/04/06 00:22:08;;;;;;;20.27;11.10;;;;;;;8.68;83.22;97582.19;5010638;28;20034;-77
2022/04/06 00:24:34;;;;;;;20.25;10.68;;;;;;;8.59;83.71;97584.59;4990478;28;20042;-77
2022/04/06 00:26:59;;;;;;;16.67;11.30;;;;;;;8.56;83.64;97589.66;5004664;28;20040;-77
2022/04/06 00:29:25;;;;;;;16.35;8.88;;;;;;;8.59;83.40;97583.78;4993084;28;20125;-77
2022/04/06 00:31:50;;;;;;;21.85;12.27;;;;;;;8.61;82.86;97577.13;5011042;28;20432;-77
2022/04/06 00:34:16;;;;;;;16.13;9.95;;;;;;;8.59;82.89;97576.59;5011221;28;20038;-77
2022/04/06 00:36:41;;;;;;;17.35;10.60;;;;;;;8.54;82.60;97579.25;5010763;28;20022;-77
2022/04/06 00:39:06;;;;;;;16.83;10.43;;;;;;;8.51;83.09;97574.50;5016984;28;20041;-77
2022/04/06 00:41:32;;;;;;;17.48;10.07;;;;;;;8.54;82.98;97576.59;5014111;28;20033;-77
2022/04/06 00:44:14;;;;;;;17.33;10.32;;;;;;;8.56;82.54;97581.66;5015782;28;20053;-77
2022/04/06 00:46:41;;;;;;;16.52;9.52;;;;;;;8.52;82.83;97580.63;5011633;28;20121;-77
2022/04/06 00:49:11;;;;;;;19.95;11.23;;;;;;;8.46;83.24;97577.13;5017294;28;20359;-77
2022/04/06 00:51:39;;;;;;;15.13;10.32;;;;;;;8.51;83.34;97579.81;5014200;28;20061;-77
2022/04/06 00:54:05;;;;;;;16.02;10.00;;;;;;;8.50;83.34;97582.72;4992371;28;20030;-77
2022/04/06 00:56:30;;;;;;;14.07;10.35;;;;;;;8.49;83.03;97581.13;4993113;28;20034;-77
2022/04/06 00:58:56;;;;;;;16.20;9.50;;;;;;;8.46;83.21;97571.00;5026596;28;20710;-77
2022/04/06 01:01:21;;;;;;;15.15;9.63;;;;;;;8.44;82.86;97562.50;5015567;28;20080;-77
2022/04/06 01:03:47;;;;;;;14.95;8.63;;;;;;;8.49;83.30;97571.31;5010449;28;20436;-77
2022/04/06 01:06:12;;;;;;;13.52;8.90;;;;;;;8.42;82.84;97577.94;5009050;28;20033;-77
2022/04/06 01:08:37;;;;;;;13.30;8.38;;;;;;;8.43;82.43;97569.69;5011571;28;20083;-77
2022/04/06 01:11:03;;;;;;;17.92;8.40;;;;;;;8.44;82.28;97568.63;4998152;28;20072;-77
2022/04/06 01:13:29;;;;;;;13.88;8.27;;;;;;;8.44;82.60;97565.16;5012275;28;20401;-77
2022/04/06 01:15:55;;;;;;;10.13;7.20;;;;;;;8.46;82.41;97555.88;5013622;28;20117;-77
2022/04/06 01:18:20;;;;;;;11.68;8.43;;;;;;;8.45;82.72;97556.13;5010013;28;20120;-77
2022/04/06 01:20:45;;;;;;;14.70;7.82;;;;;;;8.42;82.42;97557.47;5017246;28;20025;-77
2022/04/06 01:23:11;;;;;;;9.77;7.55;;;;;;;8.41;81.84;97563.84;5012765;28;20025;-77
2022/04/06 01:25:38;;;;;;;11.18;6.65;;;;;;;8.39;82.25;97560.66;5010070;28;20390;-77
2022/04/06 01:28:04;;;;;;;15.35;6.90;;;;;;;8.40;82.19;97561.44;4995960;28;20037;-77
2022/04/06 01:30:29;;;;;;;14.60;8.52;;;;;;;8.39;81.66;97568.63;5015086;28;20045;-77
2022/04/06 01:32:57;;;;;;;11.45;6.38;;;;;;;8.37;82.53;97562.78;5014016;28;20383;-77
2022/04/06 01:35:22;;;;;;;13.52;6.63;;;;;;;8.41;82.55;97571.03;5011766;28;20612;-77
2022/04/06 01:37:48;;;;;;;11.70;6.47;;;;;;;8.37;82.20;97562.78;5009486;28;20125;-77
2022/04/06 01:40:13;;;;;;;9.73;5.68;;;;;;;8.40;81.96;97564.09;5022180;28;20046;-77
2022/04/06 01:42:38;;;;;;;11.95;5.85;;;;;;;8.32;82.02;97567.31;5005739;28;20410;-77
2022/04/06 01:45:04;;;;;;;15.50;6.63;;;;;;;8.36;82.58;97571.81;5010969;28;20087;-77
2022/04/06 01:47:29;;;;;;;13.27;6.07;;;;;;;8.30;82.34;97564.88;5011058;28;20041;-77
2022/04/06 01:52:39;;;;;;;10.82;6.95;;;;;;;8.27;81.80;97552.94;4998702;28;20065;-77
2022/04/06 01:55:10;;;;;;;13.02;6.05;;;;;;;8.35;81.80;97554.25;4995789;28;20029;-77
2022/04/06 01:57:36;;;;;;;12.48;6.22;;;;;;;8.37;81.46;97557.47;5004432;28;20034;-77
2022/04/06 02:00:09;;;;;;;13.65;6.07;;;;;;;8.29;81.95;97548.16;5012622;28;20034;-77
2022/04/06 02:02:36;;;;;;;9.73;5.50;;;;;;;8.25;82.05;97564.88;4990259;28;20030;-77
2022/04/06 02:05:01;;;;;;;11.10;5.78;;;;;;;8.26;82.18;97563.81;5010308;28;20022;-77
2022/04/06 02:07:27;;;;;;;10.90;6.28;;;;;;;8.26;82.04;97564.63;5011817;28;20131;-77
2022/04/06 02:09:53;;;;;;;14.25;5.40;;;;;;;8.25;82.12;97562.22;5009609;28;20022;-77
2022/04/06 02:12:21;;;;;;;12.55;5.97;;;;;;;8.25;81.83;97567.53;5007171;28;20502;-77
2022/04/06 02:14:46;;;;;;;12.52;6.57;;;;;;;8.30;81.64;97568.34;5009612;28;20037;-77
2022/04/06 02:17:12;;;;;;;17.20;6.22;;;;;;;8.27;82.07;97568.09;5011443;28;20053;-77
2022/04/06 02:19:37;;;;;;;12.48;6.50;;;;;;;8.20;81.81;97562.19;5005169;28;20313;-77
2022/04/06 02:22:04;;;;;;;13.77;6.90;;;;;;;8.25;81.70;97565.72;5012895;28;20040;-77
2022/04/06 02:24:31;;;;;;;11.40;6.82;;;;;;;8.27;81.70;97568.09;4995117;28;20026;-77
2022/04/06 02:26:56;;;;;;;13.18;6.70;;;;;;;8.25;81.77;97562.22;4992598;28;20506;-77
2022/04/06 02:29:21;;;;;;;11.07;7.85;;;;;;;8.27;80.92;97552.16;5009671;28;20220;-77
2022/04/06 02:31:47;;;;;;;14.55;7.43;;;;;;;8.28;81.48;97554.53;4975150;28;20440;-77
2022/04/06 02:34:13;;;;;;;17.90;9.30;;;;;;;8.27;81.29;97557.47;4991449;28;20037;-77
2022/04/06 02:36:38;;;;;;;15.75;9.60;;;;;;;8.29;81.28;97558.00;5012178;28;20473;-78
2022/04/06 02:39:04;;;;;;;16.45;9.77;;;;;;;8.26;81.63;97547.88;5008922;28;20041;-77
2022/04/06 02:41:30;;;;;;;16.05;10.30;;;;;;;8.23;81.58;97551.06;4976651;28;20029;-77
2022/04/06 02:43:55;;;;;;;18.50;10.05;;;;;;;8.21;81.53;97538.00;4977429;28;20026;-77
2022/04/06 02:46:20;;;;;;;22.40;10.73;;;;;;;8.20;81.94;97539.09;5011261;28;20428;-77
2022/04/06 02:48:46;;;;;;;23.60;13.07;;;;;;;8.30;82.06;97541.78;5012036;28;20340;-77
2022/04/06 02:51:12;;;;;;;21.35;12.38;;;;;;;8.19;81.82;97532.16;5005538;28;20038;-77
2022/04/06 02:53:37;;;;;;;18.67;12.18;;;;;;;8.22;82.17;97544.13;5013099;28;20037;-77
2022/04/06 02:56:03;;;;;;;23.05;12.40;;;;;;;8.29;82.12;97539.38;5007264;28;20038;-77
2022/04/06 02:58:28;;;;;;;19.80;12.55;;;;;;;8.21;82.07;97530.03;5024056;28;20037;-77
2022/04/06 03:00:54;;;;;;;23.48;13.07;;;;;;;8.26;82.12;97532.72;5008178;28;20065;-77
2022/04/06 03:03:20;;;;;;;21.95;12.85;;;;;;;8.22;82.49;97536.16;5006733;28;20064;-77
2022/04/06 03:05:45;;;;;;;22.38;13.43;;;;;;;8.17;82.46;97534.28;4992890;28;20033;-77
2022/04/06 03:08:11;;;;;;;22.58;13.38;;;;;;;8.20;81.91;97528.47;5021505;28;20041;-77
2022/04/06 03:10:36;;;;;;;23.50;13.50;;;;;;;8.25;81.56;97540.94;5007561;28;20376;-77
2022/04/06 03:13:01;;;;;;;19.80;12.82;;;;;;;8.23;82.30;97529.78;5011260;28;20125;-77
2022/04/06 03:15:27;;;;;;;19.48;12.73;;;;;;;8.20;82.17;97525.00;5008577;28;20033;-77
2022/04/06 03:17:52;;;;;;;20.80;12.27;;;;;;;8.16;82.15;97530.06;5006781;28;20038;-77
2022/04/06 03:20:18;;;;;;;24.00;13.75;;;;;;;8.18;82.34;97521.81;5008900;28;20038;-77
2022/04/06 03:22:43;;;;;;;24.33;13.85;;;;;;;8.19;82.42;97520.75;5008239;28;20041;-77
2022/04/06 03:25:09;;;;;;;22.85;12.45;;;;;;;8.17;81.68;97521.00;5011400;28;20052;-77
2022/04/06 03:27:35;;;;;;;25.02;13.10;;;;;;;8.15;81.91;97517.00;5007921;28;20153;-77
2022/04/06 03:30:02;;;;;;;22.02;12.23;;;;;;;8.19;82.31;97518.09;5007800;28;20040;-77
2022/04/06 03:32:27;;;;;;;21.02;13.07;;;;;;;8.22;82.04;97514.91;5013311;28;20452;-77
2022/04/06 03:34:53;;;;;;;21.00;12.02;;;;;;;8.23;82.62;97527.13;4990972;28;20103;-77
2022/04/06 03:37:18;;;;;;;17.92;12.18;;;;;;;8.24;81.74;97515.41;5008055;28;20080;-77
2022/04/06 03:39:43;;;;;;;27.27;12.77;;;;;;;8.23;82.38;97514.63;5009767;28;20032;-77
2022/04/06 03:42:09;;;;;;;25.83;12.80;;;;;;;8.15;83.09;97527.63;5006194;28;20141;-77
2022/04/06 03:44:34;;;;;;;20.17;13.60;;;;;;;8.21;82.00;97514.09;5009077;28;20076;-77
2022/04/06 03:46:59;;;;;;;21.70;12.70;;;;;;;8.19;82.51;97510.13;5004616;28;20339;-77
2022/04/06 03:49:25;;;;;;;20.55;11.95;;;;;;;8.21;82.78;97513.31;4994112;28;20034;-77
2022/04/06 03:51:50;;;;;;;23.30;12.23;;;;;;;8.19;82.67;97512.78;5013093;28;20469;-77
2022/04/06 03:54:15;;;;;;;20.27;12.95;;;;;;;8.13;82.89;97511.97;5007433;28;20525;-77
2022/04/06 03:56:41;;;;;;;22.92;13.77;;;;;;;8.18;82.39;97509.31;5008982;28;20524;-77
2022/04/06 03:59:06;;;;;;;19.35;12.50;;;;;;;8.23;82.13;97513.84;5014516;28;20057;-77
2022/04/06 04:01:35;;;;;;;17.88;11.98;;;;;;;8.13;82.82;97504.00;5010496;28;20030;-77
2022/04/06 04:04:00;;;;;;;25.02;13.80;;;;;;;8.14;82.52;97500.28;5007298;28;20087;-77
2022/04/06 04:06:25;;;;;;;24.05;12.40;;;;;;;8.15;82.68;97499.22;5002154;28;20022;-77
2022/04/06 04:08:51;;;;;;;24.85;14.48;;;;;;;8.19;82.08;97508.25;4994410;28;20490;-77
2022/04/06 04:11:16;;;;;;;21.58;13.70;;;;;;;8.17;82.26;97517.53;5019242;28;20436;-77
2022/04/06 04:13:41;;;;;;;22.10;13.93;;;;;;;8.13;83.03;97509.31;5023888;28;20045;-77
2022/04/06 04:16:07;;;;;;;23.33;15.82;;;;;;;8.17;82.44;97510.38;5009717;28;20497;-77
2022/04/06 04:18:33;;;;;;;27.35;16.27;;;;;;;8.12;82.43;97515.69;5008625;28;20034;-77
2022/04/06 04:23:42;;;;;;;22.88;16.58;;;;;;;8.17;82.36;97514.88;5000973;28;20059;-77
2022/04/06 04:26:08;;;;;;;24.05;15.05;;;;;;;8.19;82.00;97513.56;5011212;28;20034;-77
2022/04/06 04:28:33;;;;;;;25.42;15.35;;;;;;;8.13;82.65;97519.13;5011818;28;20503;-77
2022/04/06 04:31:00;;;;;;;27.17;16.65;;;;;;;8.16;81.71;97515.97;5015157;28;20033;-77
2022/04/06 04:33:25;;;;;;;25.60;15.60;;;;;;;8.15;82.01;97517.00;5007591;28;20132;-77
2022/04/06 04:35:50;;;;;;;24.30;16.70;;;;;;;8.17;82.50;97521.00;5009525;28;20124;-77
2022/04/06 04:38:16;;;;;;;27.05;17.63;;;;;;;8.17;82.73;97520.19;5020608;28;20042;-77
2022/04/06 04:40:41;;;;;;;27.90;18.00;;;;;;;8.09;82.21;97508.25;5007954;28;20560;-77
2022/04/06 04:43:06;;;;;;;27.10;16.63;;;;;;;8.15;81.69;97512.50;5009564;28;20030;-77
2022/04/06 04:45:32;;;;;;;28.33;18.00;;;;;;;8.16;82.13;97508.00;5012463;28;20032;-77
2022/04/06 04:47:57;;;;;;;29.20;19.25;;;;;;;8.08;82.85;97508.53;5010959;28;20029;-77
2022/04/06 04:50:23;;;;;;;35.05;19.50;;;;;;;8.09;82.67;97510.09;5011495;28;20029;-77
2022/04/06 04:52:48;;;;;;;28.48;19.02;;;;;;;8.05;82.14;97509.84;5023893;28;20084;-77
2022/04/06 04:55:14;;;;;;;34.53;19.50;;;;;;;8.08;81.90;97509.28;5013099;28;20042;-77
2022/04/06 04:57:39;;;;;;;26.02;17.85;;;;;;;8.10;82.38;97503.75;5005924;28;20033;-77
2022/04/06 05:00:08;;;;;;;29.65;17.35;;;;;;;8.13;81.80;97503.19;5010012;28;20030;-77
2022/04/06 05:02:33;;;;;;;22.33;16.30;;;;;;;8.14;82.07;97502.16;5011717;28;20083;-77
2022/04/06 05:04:58;;;;;;;27.67;17.45;;;;;;;8.09;82.06;97504.78;5007077;28;20030;-77
2022/04/06 05:07:24;;;;;;;31.58;18.30;;;;;;;8.01;82.49;97505.31;4992308;28;20121;-77
2022/04/06 05:09:49;;;;;;;28.20;17.02;;;;;;;8.06;81.99;97492.81;4994385;28;20120;-77
2022/04/06 05:12:15;;;;;;;27.23;17.23;;;;;;;8.12;81.91;97499.75;5012739;28;20033;-78
2022/04/06 05:14:41;;;;;;;34.90;17.00;;;;;;;8.06;81.85;97500.78;4993820;28;20501;-78
2022/04/06 05:17:07;;;;;;;29.98;18.92;;;;;;;8.08;82.14;97489.94;5004320;28;20495;-78
2022/04/06 05:19:32;;;;;;;31.23;17.05;;;;;;;8.06;81.91;97492.06;5014716;28;20527;-78
2022/04/06 05:21:59;;;;;;;29.30;15.45;;;;;;;8.04;82.54;97496.81;5007625;28;20222;-77
2022/04/06 05:24:25;;;;;;;31.02;15.98;;;;;;;8.02;82.22;97496.28;5008918;28;20102;-78
2022/04/06 05:26:50;;;;;;;29.73;16.98;;;;;;;8.07;82.10;97497.09;4985589;28;20034;-78
2022/04/06 05:29:16;;;;;;;26.23;15.30;;;;;;;8.12;81.71;97514.91;4989074;28;20034;-78
2022/04/06 05:31:41;;;;;;;27.73;15.73;;;;;;;8.08;81.81;97503.22;5007357;28;20032;-78
2022/04/06 05:34:07;;;;;;;24.05;13.77;;;;;;;8.07;82.49;97506.91;4974578;28;20038;-77
2022/04/06 05:36:32;;;;;;;30.17;15.77;;;;;;;8.05;82.07;97509.03;5000222;28;20115;-78
2022/04/06 05:38:57;;;;;;;29.65;14.95;;;;;;;8.10;81.94;97515.16;4983680;28;20045;-78
2022/04/06 05:41:23;;;;;;;27.02;14.35;;;;;;;8.07;82.06;97496.28;5008237;28;20064;-77
2022/04/06 05:43:48;;;;;;;23.77;12.82;;;;;;;8.07;82.39;97502.41;5004744;28;20045;-77
2022/04/06 05:46:13;;;;;;;28.88;15.82;;;;;;;8.21;81.36;97511.44;5007530;28;20029;-77
2022/04/06 05:48:39;;;;;;;27.92;14.93;;;;;;;8.14;81.59;97507.47;4984682;28;20386;-78
2022/04/06 05:51:05;;;;;;;23.08;13.07;;;;;;;8.10;81.60;97509.06;4983841;28;20049;-77
2022/04/06 05:53:30;;;;;;;30.48;14.07;;;;;;;8.13;81.90;97513.81;5001153;28;20478;-77
2022/04/06 05:55:55;;;;;;;24.42;13.93;;;;;;;8.13;82.29;97501.34;4997448;28;20048;-77
2022/04/06 05:58:21;;;;;;;23.33;13.43;;;;;;;8.17;81.68;97504.25;4998134;28;20030;-78
2022/04/06 06:01:12;;;;;;;25.55;12.75;;;;;;;8.16;81.41;97514.09;5009570;28;20515;-78
2022/04/06 06:03:37;;;;;;;21.95;13.63;;;;;;;8.13;81.73;97514.63;5009608;28;20026;-78
2022/04/06 06:06:02;;;;;;;27.65;12.95;;;;;;;8.10;81.59;97515.16;4976385;28;20044;-78
2022/04/06 06:08:28;;;;;;;29.65;13.38;;;;;;;8.08;82.26;97514.63;4994266;28;20033;-78
2022/04/06 06:10:53;;;;;;;21.50;13.02;;;;;;;8.07;82.80;97522.84;5014880;28;20039;-78
2022/04/06 06:13:18;;;;;;;20.23;11.48;;;;;;;8.17;81.48;97515.69;4996686;28;20052;-78
2022/04/06 06:15:44;;;;;;;23.88;13.70;;;;;;;8.13;81.91;97511.97;5011412;28;20092;-78
2022/04/06 06:18:10;;;;;;;28.33;13.20;;;;;;;8.12;82.14;97510.38;5008565;28;20036;-78
2022/04/06 06:20:36;;;;;;;19.85;12.07;;;;;;;8.11;81.44;97515.94;5009141;28;20033;-77
2022/04/06 06:23:01;;;;;;;21.35;12.27;;;;;;;8.12;81.88;97514.91;5006746;28;20029;-78
2022/04/06 06:25:26;;;;;;;48.65;13.60;;;;;;;8.02;81.87;97515.69;4973122;28;20064;-78
2022/04/06 06:27:52;;;;;;;31.20;12.50;;;;;;;8.05;81.60;97509.03;5008887;28;20124;-78
2022/04/06 06:30:17;;;;;;;24.35;12.15;;;;;;;7.97;81.88;97514.88;5014270;28;20037;-78
2022/04/06 06:32:43;;;;;;;23.15;12.35;;;;;;;7.98;81.38;97506.66;5009272;28;20029;-80
2022/04/06 06:35:09;;;;;;;25.75;11.63;;;;;;;8.06;81.79;97515.97;5003875;28;20502;-80
2022/04/06 06:37:35;;;;;;;23.10;11.15;;;;;;;7.99;81.54;97512.75;5007846;28;20030;-78
2022/04/06 06:40:01;;;;;;;20.27;10.98;;;;;;;8.05;81.38;97517.00;5001532;28;20501;-78
2022/04/06 06:42:26;;;;;;;26.42;10.93;;;;;;;8.06;81.63;97508.78;5000798;28;20029;-79
2022/04/06 06:44:52;;;;;;;23.95;13.68;;;;;;;8.05;81.07;97514.34;5007132;28;20466;-79
2022/04/06 06:47:17;;;;;;;20.35;11.00;;;;;;;8.19;81.78;97512.78;5002912;28;20499;-78
2022/04/06 06:49:46;;;;;;;19.73;10.50;;;;;;;8.26;81.56;97508.00;5002315;28;20038;-79
2022/04/06 06:52:13;;;;;;;24.20;11.98;;;;;;;8.17;81.98;97512.22;5009440;28;20503;-79
2022/04/06 06:54:39;;;;;;;23.40;10.48;;;;;;;8.12;82.13;97514.91;5005199;28;20068;-79
2022/04/06 06:57:04;;;;;;;19.70;11.68;;;;;;;8.14;81.91;97516.22;5007003;28;20061;-79
2022/04/06 06:59:30;;;;;;;20.80;10.77;;;;;;;8.20;82.12;97511.69;5007113;28;20084;-79
2022/04/06 07:01:55;;;;;;;23.08;11.65;;;;;;;8.15;81.50;97511.69;5009461;28;22027;-79
2022/04/06 07:04:22;;;;;;;18.33;11.15;;;;;;;8.21;82.45;97510.66;4992113;28;20033;-79
2022/04/06 07:06:49;;;;;;;20.73;10.32;;;;;;;8.21;82.38;97513.31;5009232;28;20056;-79
2022/04/06 07:09:15;;;;;;;16.92;9.50;;;;;;;8.18;82.06;97509.31;4976273;28;20080;-79
2022/04/06 07:11:40;;;;;;;20.63;10.43;;;;;;;8.24;82.05;97507.44;5009066;28;20029;-79
2022/04/06 07:14:06;;;;;;;18.23;9.10;;;;;;;8.34;81.89;97504.84;5009015;28;20033;-79
2022/04/06 07:16:31;;;;;;;21.63;9.70;;;;;;;8.27;81.37;97493.66;4991785;28;20030;-79
2022/04/06 07:18:56;;;;;;;18.98;10.38;;;;;;;8.32;82.14;97497.09;4991093;28;20030;-79
2022/04/06 07:21:21;;;;;;;21.42;10.25;;;;;;;8.30;81.13;97501.09;5011969;28;20072;-79
2022/04/06 07:23:47;;;;;;;13.77;9.00;;;;;;;8.36;81.13;97502.72;5007619;28;20034;-79
2022/04/06 07:26:16;;;;;;;18.35;8.90;;;;;;;8.35;81.32;97495.78;5007227;28;20061;-79
2022/04/06 07:28:47;;;;;;;13.90;8.77;;;;;;;8.44;80.39;97496.84;5023203;28;20037;-78
2022/04/06 07:31:13;;;;;;;10.50;7.72;;;;;;;8.31;80.48;97500.03;5001718;28;20096;-78
2022/04/06 07:33:40;;;;;;;16.80;9.13;;;;;;;8.28;80.47;97493.41;5018952;28;20042;-78
2022/04/06 07:36:05;;;;;;;13.55;8.70;;;;;;;8.36;80.74;97496.59;4976778;28;20125;-78
2022/04/06 07:38:31;;;;;;;13.40;7.60;;;;;;;8.24;80.27;97496.81;5005074;28;20152;-79
2022/04/06 07:40:57;;;;;;;19.90;8.38;;;;;;;8.26;80.83;97484.09;5006948;28;20057;-79
2022/04/06 07:43:22;;;;;;;10.52;7.32;;;;;;;8.38;80.17;97489.13;5010610;28;20044;-79
2022/04/06 07:45:47;;;;;;;13.52;6.93;;;;;;;8.37;80.21;97488.34;5013647;28;20032;-79
2022/04/06 07:48:13;;;;;;;12.55;8.00;;;;;;;8.41;79.90;97494.72;5003677;28;20070;-79
2022/04/06 07:50:38;;;;;;;15.18;7.32;;;;;;;8.34;80.13;97496.88;5030411;28;20029;-79
2022/04/06 07:53:04;;;;;;;12.30;7.22;;;;;;;8.50;79.19;97493.09;5010522;28;20045;-79
2022/04/06 07:55:29;;;;;;;12.30;7.20;;;;;;;8.41;79.51;97500.03;5019410;28;20030;-79
2022/04/06 07:57:55;;;;;;;12.02;7.68;;;;;;;8.43;79.03;97497.88;5022425;28;20024;-79
2022/04/06 08:00:20;;;;;;;13.98;7.15;;;;;;;8.36;78.95;97492.06;5008879;28;20022;-79
2022/04/06 08:02:47;;;;;;;15.60;7.65;;;;;;;8.37;78.03;97496.31;5006801;28;20112;-78
2022/04/06 08:05:12;;;;;;;10.55;7.00;;;;;;;8.32;78.63;97494.44;5014696;28;20052;-79
2022/04/06 08:07:43;;;;;;;10.30;7.05;;;;;;;8.41;78.35;97492.06;4990872;28;20030;-79
2022/04/06 08:10:16;;;;;;;13.18;7.60;;;;;;;8.49;77.82;97496.03;4994956;28;20049;-79
2022/04/06 08:12:41;;;;;;;12.27;7.18;;;;;;;8.45;78.16;97503.78;5009974;28;20040;-79
2022/04/06 08:15:08;;;;;;;11.32;7.43;;;;;;;8.36;78.72;97502.72;5008152;28;20120;-79
2022/04/06 08:17:36;;;;;;;12.82;6.97;;;;;;;8.39;77.72;97504.03;4992039;28;20022;-79
2022/04/06 08:20:04;;;;;;;12.55;7.65;;;;;;;8.42;78.20;97500.81;5008790;28;20026;-79
2022/04/06 08:22:29;;;;;;;10.45;7.07;;;;;;;8.44;78.06;97501.34;5010747;28;20113;-79
2022/04/06 08:24:54;;;;;;;12.23;7.25;;;;;;;8.45;76.92;97495.78;5015906;28;20129;-79
2022/04/06 08:27:20;;;;;;;20.58;7.43;;;;;;;8.46;76.68;97500.03;4991506;28;20065;-79
2022/04/06 08:29:45;;;;;;;11.88;7.10;;;;;;;8.48;76.42;97494.44;5009462;28;20032;-79
2022/04/06 08:32:10;;;;;;;10.75;7.57;;;;;;;8.53;76.26;97495.25;5008179;28;20042;-79
2022/04/06 08:34:36;;;;;;;12.00;7.28;;;;;;;8.55;76.94;97487.78;5004389;28;20038;-79
2022/04/06 08:37:02;;;;;;;10.75;6.53;;;;;;;8.57;76.25;97490.16;4978759;28;20391;-79
2022/04/06 08:39:27;;;;;;;10.38;6.18;;;;;;;8.56;76.40;97491.25;4989827;28;20037;-79
2022/04/06 08:41:57;;;;;;;13.27;7.32;;;;;;;8.52;76.17;97480.34;4973094;28;20027;-79
2022/04/06 08:44:23;;;;;;;9.15;6.95;;;;;;;8.52;76.09;97487.53;5005757;28;20026;-79
2022/04/06 08:46:50;;;;;;;8.48;6.32;;;;;;;8.55;75.10;97489.66;4990872;28;20026;-79
2022/04/06 08:49:16;;;;;;;12.07;7.70;;;;;;;8.56;75.72;97491.25;4991066;28;20026;-79
2022/04/06 08:51:44;;;;;;;12.35;7.60;;;;;;;8.58;74.82;97489.13;5010248;28;20370;-79
2022/04/06 08:54:10;;;;;;;11.95;7.82;;;;;;;8.58;74.43;97484.59;5014019;28;20026;-79
2022/04/06 08:56:35;;;;;;;11.93;7.28;;;;;;;8.58;73.68;97481.16;5014264;28;20025;-79
2022/04/06 08:59:01;;;;;;;10.38;7.13;;;;;;;8.57;74.19;97488.31;4995957;28;20378;-80
2022/04/06 09:01:31;;;;;;;10.98;6.88;;;;;;;8.67;74.79;97476.88;4980258;28;20033;-79
2022/04/06 09:03:57;;;;;;;10.95;6.65;;;;;;;8.68;74.28;97478.44;5013922;28;20033;-79
2022/04/06 09:06:23;;;;;;;9.20;6.75;;;;;;;8.63;74.64;97483.78;5012465;28;20129;-79
2022/04/06 09:08:48;;;;;;;9.98;6.85;;;;;;;8.66;75.06;97484.06;5010758;28;20124;-79
2022/04/06 09:11:16;;;;;;;9.70;7.05;;;;;;;8.69;75.10;97485.38;4996558;28;20236;-79
2022/04/06 09:13:43;;;;;;;10.95;6.72;;;;;;;8.72;74.33;97487.47;5012507;28;20091;-79
2022/04/06 09:16:10;;;;;;;10.35;7.25;;;;;;;8.73;73.78;97481.91;5012426;28;20515;-79
2022/04/06 09:18:49;;;;;;;10.43;7.20;;;;;;;8.72;73.93;97485.63;5012171;28;20057;-79
2022/04/06 09:21:16;;;;;;;13.00;8.20;;;;;;;8.73;74.29;97487.22;5028882;28;20081;-79
2022/04/06 09:23:45;;;;;;;10.50;6.90;;;;;;;8.73;74.02;97484.56;5028496;28;20544;-79
2022/04/06 09:26:11;;;;;;;10.82;7.28;;;;;;;8.77;74.20;97484.81;5010285;28;20025;-79
2022/04/06 09:28:48;;;;;;;14.30;6.28;;;;;;;8.80;74.51;97481.63;4995976;28;20105;-79
2022/04/06 09:31:18;;;;;;;10.90;6.80;;;;;;;8.82;73.66;97477.59;4978781;28;20053;-79
2022/04/06 09:34:00;;;;;;;11.13;6.05;;;;;;;8.90;73.48;97492.22;5008880;28;20025;-79
2022/04/06 09:36:30;;;;;;;11.60;6.65;;;;;;;8.92;73.51;97482.91;4993991;28;20498;-79
2022/04/06 09:38:56;;;;;;;10.20;5.47;;;;;;;8.87;74.31;97477.59;4979371;28;20165;-79
2022/04/06 09:41:21;;;;;;;9.98;5.65;;;;;;;8.93;73.89;97467.75;4992674;28;20026;-80
2022/04/06 09:43:48;;;;;;;10.82;5.88;;;;;;;8.90;72.82;97484.25;5009142;28;20030;-80
2022/04/06 09:49:14;;;;;;;10.63;6.03;;;;;;;8.96;73.15;97470.66;5012736;28;20072;-79
2022/04/06 09:51:42;;;;;;;11.75;6.32;;;;;;;8.98;72.85;97467.72;5028621;28;20482;-79
2022/04/06 09:54:09;;;;;;;7.93;4.68;;;;;;;9.02;73.08;97461.59;5012613;28;20111;-79
2022/04/06 09:56:36;;;;;;;13.25;5.13;;;;;;;9.00;73.16;97465.59;5013320;28;20103;-80
2022/04/06 09:59:03;;;;;;;13.07;5.07;;;;;;;9.07;72.86;97464.22;4995620;28;20064;-79
2022/04/06 10:01:41;;;;;;;6.35;4.65;;;;;;;9.10;72.61;97459.44;5011202;28;20041;-79
2022/04/06 10:04:10;;;;;;;10.45;4.93;;;;;;;9.13;72.97;97458.91;4995755;28;20032;-79
2022/04/06 10:06:37;;;;;;;11.40;5.15;;;;;;;9.15;73.70;97448.78;5013519;28;20026;-79
2022/04/06 10:09:07;;;;;;;6.93;4.35;;;;;;;9.19;72.46;97453.28;5011735;28;20052;-80
2022/04/06 10:11:37;;;;;;;8.05;4.40;;;;;;;9.27;72.56;97455.38;5001485;28;20033;-79
2022/04/06 10:14:05;;;;;;;12.65;4.63;;;;;;;9.30;73.02;97454.03;5012969;28;20117;-80
2022/04/06 10:16:32;;;;;;;7.40;3.92;;;;;;;9.33;71.85;97448.94;5028414;28;20030;-79
2022/04/06 10:18:58;;;;;;;7.80;4.05;;;;;;;9.44;72.35;97447.00;5012721;28;20033;-80
2022/04/06 10:21:38;;;;;;;8.05;4.18;;;;;;;9.55;71.85;97437.91;4995623;28;20508;-79
2022/04/06 10:24:13;;;;;;;6.20;4.25;;;;;;;9.57;71.66;97443.72;5028298;28;20046;-80
2022/04/06 10:26:49;;;;;;;6.68;3.28;;;;;;;9.64;70.96;97433.56;5012836;28;20025;-79
2022/04/06 10:29:15;;;;;;;7.90;3.95;;;;;;;9.63;70.99;97434.66;5011965;28;20482;-79
2022/04/06 10:31:40;;;;;;;6.22;3.38;;;;;;;9.70;71.09;97437.78;5011434;28;20057;-79
2022/04/06 10:34:24;;;;;;;5.68;3.63;;;;;;;9.76;70.82;97428.72;5011492;28;20477;-79
2022/04/06 10:37:11;;;;;;;10.07;3.95;;;;;;;9.79;70.33;97431.59;5011367;28;20489;-80
2022/04/06 10:39:57;;;;;;;10.18;3.67;;;;;;;9.83;70.50;97432.63;5012583;28;20036;-79
2022/04/06 10:42:37;;;;;;;7.82;3.97;;;;;;;9.84;71.01;97422.78;5011214;28;20549;-80
2022/04/06 10:45:25;;;;;;;6.28;3.67;;;;;;;9.89;71.19;97429.94;5012052;28;20029;-80
2022/04/06 10:48:12;;;;;;;8.35;4.15;;;;;;;9.92;70.81;97424.84;5012006;28;20076;-80
2022/04/06 10:50:39;;;;;;;3.45;2.90;;;;;;;9.93;69.76;97431.78;5010999;28;20025;-80
2022/04/06 10:53:20;;;;;;;4.90;2.97;;;;;;;9.93;70.43;97420.31;5012435;28;20540;-79
2022/04/06 10:56:06;;;;;;;7.38;3.13;;;;;;;9.96;70.30;97417.88;5012220;28;20113;-80
2022/04/06 10:58:56;;;;;;;5.45;3.53;;;;;;;10.03;69.92;97410.34;5011984;28;20025;-80
2022/04/06 11:01:34;;;;;;;7.45;3.20;;;;;;;9.98;70.15;97412.28;5012379;28;20026;-80
2022/04/06 11:04:05;;;;;;;7.88;3.30;;;;;;;10.02;69.26;97418.66;5010293;28;20044;-80
2022/04/06 11:07:03;;;;;;;5.40;3.08;;;;;;;10.08;69.26;97426.31;5012025;28;20076;-80
2022/04/06 11:12:20;;;;;;;6.13;3.00;;;;;;;10.03;69.01;97410.34;5012116;28;20125;-80
2022/04/06 11:14:50;;;;;;;8.80;3.25;;;;;;;9.99;69.15;97417.31;5011780;28;20482;-80
2022/04/06 11:17:48;;;;;;;9.35;2.92;;;;;;;10.03;69.17;97431.69;5010221;28;20455;-80
2022/04/06 11:20:16;;;;;;;6.90;2.63;;;;;;;10.16;68.64;97430.25;5010435;28;20057;-80
2022/04/06 11:22:44;;;;;;;5.60;3.28;;;;;;;10.08;68.57;97428.97;5012279;28;20026;-80
2022/04/06 11:25:12;;;;;;;6.72;2.90;;;;;;;9.91;69.24;97438.44;5010809;28;20127;-80
2022/04/06 11:27:38;;;;;;;6.35;2.42;;;;;;;9.91;68.59;97435.78;5010283;28;20478;-80
2022/04/06 11:30:14;;;;;;;4.18;2.25;;;;;;;9.93;68.71;97431.78;5011027;28;20101;-80
2022/04/06 11:32:43;;;;;;;5.93;2.75;;;;;;;10.03;68.46;97431.69;5015151;28;20052;-80
2022/04/06 11:35:13;;;;;;;4.63;2.50;;;;;;;10.02;68.95;97445.31;5011113;28;20030;-80
2022/04/06 11:37:49;;;;;;;4.32;2.67;;;;;;;9.94;68.26;97436.00;5009374;28;20038;-80
2022/04/06 11:40:16;;;;;;;3.25;2.15;;;;;;;10.12;68.54;97447.91;4992214;28;20026;-80
2022/04/06 11:42:47;;;;;;;4.00;2.35;;;;;;;10.07;68.48;97432.72;4990900;28;20097;-80